メインページ
METAR-TAF:

METAR-TAF

空港 :

ケベック・シティー, ケベック州, カナダ

ケベック・ジャン・ルサージ国際空港

緯度: 46-48N, 経度: 071-23W, 海抜: 70m

現時点の気象観測

当レポートは20分前の23:00(UTC)に作成
南西の風 5kt
気温 18°C
湿度 39%
気圧 1010 hPa
視程: 48.3km
高度5000ftの雲はほとんどない
高度12000ftの雲はほとんどない
高度16000ftの千切れ雲あり
高度20000ftの千切れ雲あり

METAR: CYQB 272300Z 23005KT 30SM FEW050 FEW120 BKN160 BKN200 18/04 A2983 RMK CU1AC1AC5CI1 CU TR AC TR SLP106 DENSITY ALT 700FT

時間: 19:20 (23:20 UTC)

予報

当レポートは5時間42分前の17:38(UTC)に作成
予報は27日の 18時(UTC)から 28日の 18時(UTC)まで有効
変向風 3kt
視程: 10km
高度1500ftの雲はほとんどない
高度16000ftの千切れ雲あり
28日の 0200時(UTC)から
変向風 3kt
視程: 10km
高度8000ftの千切れ雲あり
28日の 0400時(UTC)から
変向風 3kt
視程: 10km
高度3000ftの雲は散在している
高度8000ftの千切れ雲あり
28日の 04時(UTC)から 28日の 08時(UTC)まで一時的に
視程: 10km
高度3000ftの千切れ雲あり
高度8000ftの曇り
弱いにわか雨
28日の 0800時(UTC)から
変向風 3kt
視程: 10km
高度3000ftの雲はほとんどない
高度9000ftの雲は散在している
28日の 16時(UTC)から 28日の 18時(UTC)まで徐々に
東/北東の風 10kt

TAF: CYQB 271738Z 2718/2818 VRB03KT P6SM FEW015 BKN160 FM280200 VRB03KT P6SM BKN080 FM280400 VRB03KT P6SM SCT030 BKN080 TEMPO 2804/2808 P6SM -SHRA BKN030 OVC080 FM280800 VRB03KT P6SM FEW030 SCT090 BECMG 2816/2818 07010KT RMK NXT FCST BY 280000Z

4,000以上の空港の気象観測と天気予報(METAR報とTAF報)

利用可能な観測所は地図上に黄色い丸と赤い丸で示す。

丸の上にカーソルを重ねると観測所名を参照できる。

次にクリックすると気象観測と天気予報を参照できる。

マップの切り替え:黒色「×」印の緑ボタンをクリックして拡大、「-」印の緑ボタンをクリックして縮小、緑色の三角印をクリックして隣りの地図に切り替え


METAR-TAF: